Higawa, Japan

11:35 PM JST on March 27, 2017 (GMT +0900)
Yonaguni | | Change Station

Elev 56 ft 24.47 °N, 122.98 °E | Updated 35 minutes ago

Partly Cloudy
Partly Cloudy
63 °F
Feels Like 63 °F
N
6
Wind Variable Wind from ESE

Today
High -- | Low -- °F
--% Chance of Precip.
Yesterday
High -- | Low -- °F
Precip. -- in
Pressure 30.27 in
Visibility 6.2 miles
Clouds
Dew Point 46 °F
Humidity 55%
Rainfall 0.00 in
Snow Depth Not available.
6:45 AM 7:02 PM
Waning Crescent, 0% visible
METAR ROYN 271400Z AUTO 12005KT 9999 NSC 17/08 Q1025
Pressure 30.27 in
Visibility 6.2 miles
Clouds
Dew Point 46 °F
Humidity 55%
Rainfall 0.00 in
Snow Depth Not available.
6:45 AM 7:02 PM
Waning Crescent, 0% visible
METAR ROYN 271400Z AUTO 12005KT 9999 NSC 17/08 Q1025

Get Severe Weather Alerts

Thanks for signing up!

Be on the lookout for a verification email in your inbox.

You'll start receiving the daily forecast at 8 AM.

×

10-Day Weather Forecast

No radar image for this location.
×

Almanac

Astronomy

Mar. 27, 2017 Rise Set
Actual Time
Civil Twilight
Nautical Twilight
Astronomical Twilight
Moon
Length of Visible Light
Length of Day
Tomorrow will be .
, % of the Moon is Illuminated

Today's Extremes

Country Highs Country Lows

Community

WunderPhotos

Upload Photos

1,962,540 photos uploaded!

WunderBlog® & News

Nearby

Air Quality

  Air Quality AQ Index Pollutant
Not available.

Snow Depth

Station Depth Elevation

Earthquake Activity

City Distance Mag. Time & Date
Minimum magnitude displayed is 2.5.

Earthquake Activity

City Distance Mag. Time & Date
Minimum magnitude displayed is 2.5.

Coastal Water Temperatures

Place Temperature

Stations

Nearby Weather Stations

Station Location Temp. Windchill Dew Point Humidity Wind Precip. Elev Updated Type